sensor_id;sensor_type;location;lat;lon;timestamp;temperature;humidity
55004;DHT22;40900;52.710;6.438;2023-01-28T00:01:08;2.90;99.90
55004;DHT22;40900;52.710;6.438;2023-01-28T00:03:34;3.00;99.90
55004;DHT22;40900;52.710;6.438;2023-01-28T00:06:11;2.90;99.90
55004;DHT22;40900;52.710;6.438;2023-01-28T00:08:38;3.00;99.90
55004;DHT22;40900;52.710;6.438;2023-01-28T00:11:05;3.00;99.90
55004;DHT22;40900;52.710;6.438;2023-01-28T00:13:32;3.00;99.90
55004;DHT22;40900;52.710;6.438;2023-01-28T00:16:00;3.00;99.90
55004;DHT22;40900;52.710;6.438;2023-01-28T00:18:27;3.00;99.90
55004;DHT22;40900;52.710;6.438;2023-01-28T00:23:31;3.00;99.90
55004;DHT22;40900;52.710;6.438;2023-01-28T00:25:58;3.10;99.90
55004;DHT22;40900;52.710;6.438;2023-01-28T00:28:24;3.10;99.90
55004;DHT22;40900;52.710;6.438;2023-01-28T00:30:49;3.00;99.90
55004;DHT22;40900;52.710;6.438;2023-01-28T00:33:15;3.00;99.90
55004;DHT22;40900;52.710;6.438;2023-01-28T00:35:41;3.00;99.90
55004;DHT22;40900;52.710;6.438;2023-01-28T00:38:07;3.00;99.90
55004;DHT22;40900;52.710;6.438;2023-01-28T00:40:33;3.00;99.90
55004;DHT22;40900;52.710;6.438;2023-01-28T00:42:59;3.00;99.90
55004;DHT22;40900;52.710;6.438;2023-01-28T00:45:25;2.90;99.90
55004;DHT22;40900;52.710;6.438;2023-01-28T00:47:51;2.90;99.90
55004;DHT22;40900;52.710;6.438;2023-01-28T00:50:16;2.90;99.90
55004;DHT22;40900;52.710;6.438;2023-01-28T00:52:42;2.90;99.90
55004;DHT22;40900;52.710;6.438;2023-01-28T00:55:09;2.90;99.90
55004;DHT22;40900;52.710;6.438;2023-01-28T00:57:34;2.90;99.90
55004;DHT22;40900;52.710;6.438;2023-01-28T01:00:00;2.80;99.90
55004;DHT22;40900;52.710;6.438;2023-01-28T01:02:26;2.70;99.90
55004;DHT22;40900;52.710;6.438;2023-01-28T01:04:51;2.70;99.90
55004;DHT22;40900;52.710;6.438;2023-01-28T01:07:24;2.80;99.90
55004;DHT22;40900;52.710;6.438;2023-01-28T01:10:03;2.80;99.90
55004;DHT22;40900;52.710;6.438;2023-01-28T01:12:29;2.80;99.90
55004;DHT22;40900;52.710;6.438;2023-01-28T01:14:56;2.80;99.90
55004;DHT22;40900;52.710;6.438;2023-01-28T01:17:22;2.80;99.90
55004;DHT22;40900;52.710;6.438;2023-01-28T01:19:47;2.90;99.90
55004;DHT22;40900;52.710;6.438;2023-01-28T01:22:13;2.90;99.90
55004;DHT22;40900;52.710;6.438;2023-01-28T01:24:39;2.90;99.90
55004;DHT22;40900;52.710;6.438;2023-01-28T01:27:04;2.90;99.90
55004;DHT22;40900;52.710;6.438;2023-01-28T01:29:31;2.80;99.90
55004;DHT22;40900;52.710;6.438;2023-01-28T01:31:58;2.80;99.90
55004;DHT22;40900;52.710;6.438;2023-01-28T01:34:24;2.80;99.90
55004;DHT22;40900;52.710;6.438;2023-01-28T01:36:50;2.80;99.90
55004;DHT22;40900;52.710;6.438;2023-01-28T01:39:16;2.80;99.90
55004;DHT22;40900;52.710;6.438;2023-01-28T01:41:41;2.80;99.90
55004;DHT22;40900;52.710;6.438;2023-01-28T01:45:10;2.90;99.90
55004;DHT22;40900;52.710;6.438;2023-01-28T01:50:39;3.20;99.90
55004;DHT22;40900;52.710;6.438;2023-01-28T01:53:13;2.70;99.90
55004;DHT22;40900;52.710;6.438;2023-01-28T01:55:43;2.70;99.90
55004;DHT22;40900;52.710;6.438;2023-01-28T01:58:13;2.80;99.90
55004;DHT22;40900;52.710;6.438;2023-01-28T02:00:41;2.70;99.90
55004;DHT22;40900;52.710;6.438;2023-01-28T02:03:08;2.70;99.90
55004;DHT22;40900;52.710;6.438;2023-01-28T02:05:34;2.70;99.90
55004;DHT22;40900;52.710;6.438;2023-01-28T02:08:00;2.60;99.90
55004;DHT22;40900;52.710;6.438;2023-01-28T02:10:56;2.70;99.90
55004;DHT22;40900;52.710;6.438;2023-01-28T02:13:32;2.60;99.90
55004;DHT22;40900;52.710;6.438;2023-01-28T02:16:00;2.70;99.90
55004;DHT22;40900;52.710;6.438;2023-01-28T02:18:27;2.70;99.90
55004;DHT22;40900;52.710;6.438;2023-01-28T02:21:23;2.60;99.90
55004;DHT22;40900;52.710;6.438;2023-01-28T02:32:18;2.40;99.90
55004;DHT22;40900;52.710;6.438;2023-01-28T02:37:26;2.40;99.90
55004;DHT22;40900;52.710;6.438;2023-01-28T02:40:19;2.40;99.90
55004;DHT22;40900;52.710;6.438;2023-01-28T02:42:41;2.40;99.90
55004;DHT22;40900;52.710;6.438;2023-01-28T02:45:26;2.40;99.90
55004;DHT22;40900;52.710;6.438;2023-01-28T02:48:15;3.00;99.90
55004;DHT22;40900;52.710;6.438;2023-01-28T02:51:04;2.40;99.90
55004;DHT22;40900;52.710;6.438;2023-01-28T02:53:50;2.50;99.90
55004;DHT22;40900;52.710;6.438;2023-01-28T02:56:27;2.50;99.90
55004;DHT22;40900;52.710;6.438;2023-01-28T02:59:00;2.50;99.90
55004;DHT22;40900;52.710;6.438;2023-01-28T03:01:47;2.60;99.90
55004;DHT22;40900;52.710;6.438;2023-01-28T03:07:11;2.50;99.90
55004;DHT22;40900;52.710;6.438;2023-01-28T03:09:39;2.50;99.90
55004;DHT22;40900;52.710;6.438;2023-01-28T03:12:17;2.50;99.90
55004;DHT22;40900;52.710;6.438;2023-01-28T03:18:06;2.40;99.90
55004;DHT22;40900;52.710;6.438;2023-01-28T03:21:11;2.40;99.90
55004;DHT22;40900;52.710;6.438;2023-01-28T03:24:02;2.40;99.90
55004;DHT22;40900;52.710;6.438;2023-01-28T03:27:02;2.40;99.90
55004;DHT22;40900;52.710;6.438;2023-01-28T03:29:51;2.50;99.90
55004;DHT22;40900;52.710;6.438;2023-01-28T03:32:38;2.40;99.90
55004;DHT22;40900;52.710;6.438;2023-01-28T03:35:28;2.40;99.90
55004;DHT22;40900;52.710;6.438;2023-01-28T03:38:14;2.40;99.90
55004;DHT22;40900;52.710;6.438;2023-01-28T03:40:54;2.40;99.90
55004;DHT22;40900;52.710;6.438;2023-01-28T03:43:20;2.40;99.90
55004;DHT22;40900;52.710;6.438;2023-01-28T03:45:47;2.40;99.90
55004;DHT22;40900;52.710;6.438;2023-01-28T03:48:23;2.40;99.90
55004;DHT22;40900;52.710;6.438;2023-01-28T03:50:50;2.40;99.90
55004;DHT22;40900;52.710;6.438;2023-01-28T03:53:17;2.40;99.90
55004;DHT22;40900;52.710;6.438;2023-01-28T03:55:44;2.40;99.90
55004;DHT22;40900;52.710;6.438;2023-01-28T03:58:11;2.50;99.90
55004;DHT22;40900;52.710;6.438;2023-01-28T04:00:38;2.50;99.90
55004;DHT22;40900;52.710;6.438;2023-01-28T04:03:13;2.50;99.90
55004;DHT22;40900;52.710;6.438;2023-01-28T04:05:58;2.40;99.90
55004;DHT22;40900;52.710;6.438;2023-01-28T04:08:24;2.40;99.90
55004;DHT22;40900;52.710;6.438;2023-01-28T04:10:50;2.40;99.90
55004;DHT22;40900;52.710;6.438;2023-01-28T04:13:16;2.50;99.90
55004;DHT22;40900;52.710;6.438;2023-01-28T04:15:43;2.40;99.90
55004;DHT22;40900;52.710;6.438;2023-01-28T04:18:10;2.40;99.90
55004;DHT22;40900;52.710;6.438;2023-01-28T04:20:36;2.40;99.90
55004;DHT22;40900;52.710;6.438;2023-01-28T04:23:03;2.40;99.90
55004;DHT22;40900;52.710;6.438;2023-01-28T04:25:29;2.40;99.90
55004;DHT22;40900;52.710;6.438;2023-01-28T04:27:55;2.50;99.90
55004;DHT22;40900;52.710;6.438;2023-01-28T04:30:21;2.40;99.90
55004;DHT22;40900;52.710;6.438;2023-01-28T04:32:47;2.40;99.90
55004;DHT22;40900;52.710;6.438;2023-01-28T04:35:15;2.40;99.90
55004;DHT22;40900;52.710;6.438;2023-01-28T04:37:41;2.40;99.90
55004;DHT22;40900;52.710;6.438;2023-01-28T04:40:08;2.30;99.90
55004;DHT22;40900;52.710;6.438;2023-01-28T04:42:34;2.30;99.90
55004;DHT22;40900;52.710;6.438;2023-01-28T04:45:00;2.40;99.90
55004;DHT22;40900;52.710;6.438;2023-01-28T04:47:25;2.30;99.90
55004;DHT22;40900;52.710;6.438;2023-01-28T04:49:51;2.30;99.90
55004;DHT22;40900;52.710;6.438;2023-01-28T04:52:16;2.30;99.90
55004;DHT22;40900;52.710;6.438;2023-01-28T04:54:42;2.30;99.90
55004;DHT22;40900;52.710;6.438;2023-01-28T04:57:08;2.30;99.90
55004;DHT22;40900;52.710;6.438;2023-01-28T04:59:33;2.30;99.90
55004;DHT22;40900;52.710;6.438;2023-01-28T05:01:59;2.30;99.90
55004;DHT22;40900;52.710;6.438;2023-01-28T05:04:25;2.20;99.90
55004;DHT22;40900;52.710;6.438;2023-01-28T05:06:50;2.20;99.90
55004;DHT22;40900;52.710;6.438;2023-01-28T05:09:16;2.20;99.90
55004;DHT22;40900;52.710;6.438;2023-01-28T05:11:42;2.20;99.90
55004;DHT22;40900;52.710;6.438;2023-01-28T05:14:08;2.20;99.90
55004;DHT22;40900;52.710;6.438;2023-01-28T05:16:33;2.20;99.90
55004;DHT22;40900;52.710;6.438;2023-01-28T05:19:00;2.30;99.90
55004;DHT22;40900;52.710;6.438;2023-01-28T05:21:27;2.30;99.90
55004;DHT22;40900;52.710;6.438;2023-01-28T05:23:52;2.30;99.90
55004;DHT22;40900;52.710;6.438;2023-01-28T05:26:18;2.50;99.90
55004;DHT22;40900;52.710;6.438;2023-01-28T05:28:44;2.30;99.90
55004;DHT22;40900;52.710;6.438;2023-01-28T05:31:10;2.20;99.90
55004;DHT22;40900;52.710;6.438;2023-01-28T05:33:36;2.20;99.90
55004;DHT22;40900;52.710;6.438;2023-01-28T05:36:02;2.30;99.90
55004;DHT22;40900;52.710;6.438;2023-01-28T05:38:28;2.20;99.90
55004;DHT22;40900;52.710;6.438;2023-01-28T05:40:54;2.30;99.90
55004;DHT22;40900;52.710;6.438;2023-01-28T05:43:20;2.30;99.90
55004;DHT22;40900;52.710;6.438;2023-01-28T05:45:46;2.30;99.90
55004;DHT22;40900;52.710;6.438;2023-01-28T05:48:13;2.30;99.90
55004;DHT22;40900;52.710;6.438;2023-01-28T05:50:38;2.40;99.90
55004;DHT22;40900;52.710;6.438;2023-01-28T05:53:08;2.40;99.90
55004;DHT22;40900;52.710;6.438;2023-01-28T05:55:34;2.40;99.90
55004;DHT22;40900;52.710;6.438;2023-01-28T05:58:00;2.40;99.90
55004;DHT22;40900;52.710;6.438;2023-01-28T06:00:26;2.30;99.90
55004;DHT22;40900;52.710;6.438;2023-01-28T06:02:52;2.40;99.90
55004;DHT22;40900;52.710;6.438;2023-01-28T06:05:18;2.40;99.90
55004;DHT22;40900;52.710;6.438;2023-01-28T06:07:45;2.40;99.90
55004;DHT22;40900;52.710;6.438;2023-01-28T06:10:11;2.40;99.90
55004;DHT22;40900;52.710;6.438;2023-01-28T06:12:37;2.40;99.90
55004;DHT22;40900;52.710;6.438;2023-01-28T06:15:03;2.40;99.90
55004;DHT22;40900;52.710;6.438;2023-01-28T06:17:29;2.30;99.90
55004;DHT22;40900;52.710;6.438;2023-01-28T06:19:54;2.30;99.90
55004;DHT22;40900;52.710;6.438;2023-01-28T06:22:20;2.30;99.90
55004;DHT22;40900;52.710;6.438;2023-01-28T06:24:46;2.30;99.90
55004;DHT22;40900;52.710;6.438;2023-01-28T06:27:11;2.30;99.90
55004;DHT22;40900;52.710;6.438;2023-01-28T06:29:37;2.30;99.90
55004;DHT22;40900;52.710;6.438;2023-01-28T06:32:03;2.30;99.90
55004;DHT22;40900;52.710;6.438;2023-01-28T06:34:29;2.30;99.90
55004;DHT22;40900;52.710;6.438;2023-01-28T06:36:55;2.30;99.90
55004;DHT22;40900;52.710;6.438;2023-01-28T06:39:21;2.30;99.90
55004;DHT22;40900;52.710;6.438;2023-01-28T06:41:48;2.30;99.90
55004;DHT22;40900;52.710;6.438;2023-01-28T06:44:13;2.30;99.90
55004;DHT22;40900;52.710;6.438;2023-01-28T06:46:39;2.20;99.90
55004;DHT22;40900;52.710;6.438;2023-01-28T06:49:05;2.30;99.90
55004;DHT22;40900;52.710;6.438;2023-01-28T06:51:31;2.30;99.90
55004;DHT22;40900;52.710;6.438;2023-01-28T06:53:56;2.30;99.90
55004;DHT22;40900;52.710;6.438;2023-01-28T06:56:22;2.30;99.90
55004;DHT22;40900;52.710;6.438;2023-01-28T06:58:48;2.20;99.90
55004;DHT22;40900;52.710;6.438;2023-01-28T07:01:13;2.30;99.90
55004;DHT22;40900;52.710;6.438;2023-01-28T07:03:39;2.20;99.90
55004;DHT22;40900;52.710;6.438;2023-01-28T07:06:05;2.20;99.90
55004;DHT22;40900;52.710;6.438;2023-01-28T07:08:31;2.20;99.90
55004;DHT22;40900;52.710;6.438;2023-01-28T07:10:57;2.20;99.90
55004;DHT22;40900;52.710;6.438;2023-01-28T07:13:23;2.20;99.90
55004;DHT22;40900;52.710;6.438;2023-01-28T07:15:49;2.20;99.90
55004;DHT22;40900;52.710;6.438;2023-01-28T07:18:15;2.10;99.90
55004;DHT22;40900;52.710;6.438;2023-01-28T07:20:41;2.10;99.90
55004;DHT22;40900;52.710;6.438;2023-01-28T07:23:07;2.10;99.90
55004;DHT22;40900;52.710;6.438;2023-01-28T07:25:33;2.10;99.90
55004;DHT22;40900;52.710;6.438;2023-01-28T07:27:58;2.10;99.90
55004;DHT22;40900;52.710;6.438;2023-01-28T07:30:24;2.10;99.90
55004;DHT22;40900;52.710;6.438;2023-01-28T07:32:54;2.10;99.90
55004;DHT22;40900;52.710;6.438;2023-01-28T07:35:20;2.20;99.90
55004;DHT22;40900;52.710;6.438;2023-01-28T07:37:52;2.10;99.90
55004;DHT22;40900;52.710;6.438;2023-01-28T07:40:19;2.20;99.90
55004;DHT22;40900;52.710;6.438;2023-01-28T07:42:44;2.50;99.90
55004;DHT22;40900;52.710;6.438;2023-01-28T07:45:10;2.20;99.90
55004;DHT22;40900;52.710;6.438;2023-01-28T07:47:36;2.20;99.90
55004;DHT22;40900;52.710;6.438;2023-01-28T07:50:02;2.10;99.90
55004;DHT22;40900;52.710;6.438;2023-01-28T07:52:27;2.10;99.90
55004;DHT22;40900;52.710;6.438;2023-01-28T07:54:53;2.10;99.90
55004;DHT22;40900;52.710;6.438;2023-01-28T07:57:19;2.00;99.90
55004;DHT22;40900;52.710;6.438;2023-01-28T07:59:48;2.10;99.90
55004;DHT22;40900;52.710;6.438;2023-01-28T08:02:14;2.20;99.90
55004;DHT22;40900;52.710;6.438;2023-01-28T08:04:40;2.10;99.90
55004;DHT22;40900;52.710;6.438;2023-01-28T08:07:05;2.20;99.90
55004;DHT22;40900;52.710;6.438;2023-01-28T08:09:31;2.20;99.90
55004;DHT22;40900;52.710;6.438;2023-01-28T08:11:58;2.20;99.90
55004;DHT22;40900;52.710;6.438;2023-01-28T08:14:26;2.10;99.90
55004;DHT22;40900;52.710;6.438;2023-01-28T08:16:52;2.10;99.90
55004;DHT22;40900;52.710;6.438;2023-01-28T08:19:17;2.20;99.90
55004;DHT22;40900;52.710;6.438;2023-01-28T08:21:46;2.20;99.90
55004;DHT22;40900;52.710;6.438;2023-01-28T08:24:12;2.20;99.90
55004;DHT22;40900;52.710;6.438;2023-01-28T08:26:38;2.10;99.90
55004;DHT22;40900;52.710;6.438;2023-01-28T08:29:04;2.10;99.90
55004;DHT22;40900;52.710;6.438;2023-01-28T08:31:30;2.10;99.90
55004;DHT22;40900;52.710;6.438;2023-01-28T08:33:56;2.00;99.90
55004;DHT22;40900;52.710;6.438;2023-01-28T08:36:22;2.00;99.90
55004;DHT22;40900;52.710;6.438;2023-01-28T08:38:51;2.00;99.90
55004;DHT22;40900;52.710;6.438;2023-01-28T08:41:20;2.10;99.90
55004;DHT22;40900;52.710;6.438;2023-01-28T08:43:46;2.20;99.90
55004;DHT22;40900;52.710;6.438;2023-01-28T08:46:12;2.70;99.90
55004;DHT22;40900;52.710;6.438;2023-01-28T08:48:37;3.40;99.90
55004;DHT22;40900;52.710;6.438;2023-01-28T08:51:03;3.70;99.90
55004;DHT22;40900;52.710;6.438;2023-01-28T08:53:30;3.60;99.90
55004;DHT22;40900;52.710;6.438;2023-01-28T08:55:55;3.60;99.90
55004;DHT22;40900;52.710;6.438;2023-01-28T08:58:21;3.50;99.90
55004;DHT22;40900;52.710;6.438;2023-01-28T09:00:47;3.40;99.90
55004;DHT22;40900;52.710;6.438;2023-01-28T09:03:13;3.60;99.90
55004;DHT22;40900;52.710;6.438;2023-01-28T09:05:38;3.60;99.90
55004;DHT22;40900;52.710;6.438;2023-01-28T09:08:13;3.90;99.90
55004;DHT22;40900;52.710;6.438;2023-01-28T09:10:39;3.80;99.90
55004;DHT22;40900;52.710;6.438;2023-01-28T09:13:11;3.50;99.90
55004;DHT22;40900;52.710;6.438;2023-01-28T09:15:37;3.40;99.90
55004;DHT22;40900;52.710;6.438;2023-01-28T09:18:04;3.40;99.90
55004;DHT22;40900;52.710;6.438;2023-01-28T09:20:30;4.30;99.90
55004;DHT22;40900;52.710;6.438;2023-01-28T09:22:58;5.00;99.90
55004;DHT22;40900;52.710;6.438;2023-01-28T09:25:24;6.10;99.90
55004;DHT22;40900;52.710;6.438;2023-01-28T09:27:49;6.20;99.90
55004;DHT22;40900;52.710;6.438;2023-01-28T09:30:15;6.20;99.90
55004;DHT22;40900;52.710;6.438;2023-01-28T09:32:41;5.90;99.90
55004;DHT22;40900;52.710;6.438;2023-01-28T09:35:07;5.10;99.90
55004;DHT22;40900;52.710;6.438;2023-01-28T09:37:33;5.90;99.90
55004;DHT22;40900;52.710;6.438;2023-01-28T09:39:58;6.90;99.90
55004;DHT22;40900;52.710;6.438;2023-01-28T09:42:58;7.70;99.90
55004;DHT22;40900;52.710;6.438;2023-01-28T09:45:43;8.20;99.90
55004;DHT22;40900;52.710;6.438;2023-01-28T09:48:15;7.80;99.90
55004;DHT22;40900;52.710;6.438;2023-01-28T09:50:45;6.70;99.90
55004;DHT22;40900;52.710;6.438;2023-01-28T09:53:16;6.00;99.90
55004;DHT22;40900;52.710;6.438;2023-01-28T09:55:45;5.50;99.90
55004;DHT22;40900;52.710;6.438;2023-01-28T09:58:14;5.40;99.90
55004;DHT22;40900;52.710;6.438;2023-01-28T10:03:42;4.80;99.90
55004;DHT22;40900;52.710;6.438;2023-01-28T10:06:28;4.70;99.90
55004;DHT22;40900;52.710;6.438;2023-01-28T10:09:06;4.90;99.90
55004;DHT22;40900;52.710;6.438;2023-01-28T10:12:07;4.60;99.90
55004;DHT22;40900;52.710;6.438;2023-01-28T10:14:51;4.60;99.90
55004;DHT22;40900;52.710;6.438;2023-01-28T10:17:29;5.20;99.90
55004;DHT22;40900;52.710;6.438;2023-01-28T10:19:59;6.40;99.90
55004;DHT22;40900;52.710;6.438;2023-01-28T10:22:31;7.80;99.90
55004;DHT22;40900;52.710;6.438;2023-01-28T10:25:02;9.40;99.90
55004;DHT22;40900;52.710;6.438;2023-01-28T10:27:32;10.40;99.90
55004;DHT22;40900;52.710;6.438;2023-01-28T10:29:59;11.00;99.90
55004;DHT22;40900;52.710;6.438;2023-01-28T10:32:36;11.70;99.90
55004;DHT22;40900;52.710;6.438;2023-01-28T10:35:03;12.10;99.90
55004;DHT22;40900;52.710;6.438;2023-01-28T10:37:34;12.80;99.90
55004;DHT22;40900;52.710;6.438;2023-01-28T10:40:00;13.10;99.90
55004;DHT22;40900;52.710;6.438;2023-01-28T10:42:29;13.30;99.90
55004;DHT22;40900;52.710;6.438;2023-01-28T10:45:00;13.70;99.40
55004;DHT22;40900;52.710;6.438;2023-01-28T10:47:43;13.50;98.80
55004;DHT22;40900;52.710;6.438;2023-01-28T10:50:23;13.10;96.80
55004;DHT22;40900;52.710;6.438;2023-01-28T10:53:01;13.40;97.20
55004;DHT22;40900;52.710;6.438;2023-01-28T10:55:30;12.90;97.10
55004;DHT22;40900;52.710;6.438;2023-01-28T10:57:57;13.00;96.80
55004;DHT22;40900;52.710;6.438;2023-01-28T11:00:26;13.60;97.70
55004;DHT22;40900;52.710;6.438;2023-01-28T11:02:53;13.00;97.60
55004;DHT22;40900;52.710;6.438;2023-01-28T11:05:22;13.00;98.20
55004;DHT22;40900;52.710;6.438;2023-01-28T11:08:01;13.50;97.20
55004;DHT22;40900;52.710;6.438;2023-01-28T11:10:33;13.70;96.70
55004;DHT22;40900;52.710;6.438;2023-01-28T11:13:02;13.40;96.40
55004;DHT22;40900;52.710;6.438;2023-01-28T11:15:29;14.20;97.10
55004;DHT22;40900;52.710;6.438;2023-01-28T11:18:00;14.20;95.90
55004;DHT22;40900;52.710;6.438;2023-01-28T11:20:28;13.70;96.10
55004;DHT22;40900;52.710;6.438;2023-01-28T11:22:56;13.50;96.50
55004;DHT22;40900;52.710;6.438;2023-01-28T11:25:31;13.60;96.50
55004;DHT22;40900;52.710;6.438;2023-01-28T11:27:59;12.30;96.80
55004;DHT22;40900;52.710;6.438;2023-01-28T11:33:04;12.80;96.90
55004;DHT22;40900;52.710;6.438;2023-01-28T11:35:31;12.50;97.80
55004;DHT22;40900;52.710;6.438;2023-01-28T11:37:58;10.90;98.50
55004;DHT22;40900;52.710;6.438;2023-01-28T11:40:25;10.30;99.90
55004;DHT22;40900;52.710;6.438;2023-01-28T11:42:53;9.70;99.90
55004;DHT22;40900;52.710;6.438;2023-01-28T11:48:29;8.70;99.90
55004;DHT22;40900;52.710;6.438;2023-01-28T11:57:00;7.90;99.90
55004;DHT22;40900;52.710;6.438;2023-01-28T12:02:27;7.40;99.90
55004;DHT22;40900;52.710;6.438;2023-01-28T12:10:32;7.10;99.90
55004;DHT22;40900;52.710;6.438;2023-01-28T12:16:02;7.00;99.90
55004;DHT22;40900;52.710;6.438;2023-01-28T12:21:10;7.00;99.90
55004;DHT22;40900;52.710;6.438;2023-01-28T12:24:13;7.10;99.90
55004;DHT22;40900;52.710;6.438;2023-01-28T12:26:51;7.40;99.90
55004;DHT22;40900;52.710;6.438;2023-01-28T12:32:02;7.60;99.90
55004;DHT22;40900;52.710;6.438;2023-01-28T12:37:56;7.90;99.90
55004;DHT22;40900;52.710;6.438;2023-01-28T12:45:40;6.90;99.90
55004;DHT22;40900;52.710;6.438;2023-01-28T12:48:31;7.00;99.90
55004;DHT22;40900;52.710;6.438;2023-01-28T12:51:13;6.70;99.90
55004;DHT22;40900;52.710;6.438;2023-01-28T12:53:46;6.40;99.90
55004;DHT22;40900;52.710;6.438;2023-01-28T12:56:17;6.40;99.90
55004;DHT22;40900;52.710;6.438;2023-01-28T13:01:23;6.40;99.90
55004;DHT22;40900;52.710;6.438;2023-01-28T13:04:05;6.40;99.90
55004;DHT22;40900;52.710;6.438;2023-01-28T13:06:50;6.40;99.90
55004;DHT22;40900;52.710;6.438;2023-01-28T13:09:21;6.50;99.90
55004;DHT22;40900;52.710;6.438;2023-01-28T13:11:51;6.40;99.90
55004;DHT22;40900;52.710;6.438;2023-01-28T13:14:22;6.40;99.90
55004;DHT22;40900;52.710;6.438;2023-01-28T13:16:48;6.40;99.90
55004;DHT22;40900;52.710;6.438;2023-01-28T13:21:43;6.40;99.90
55004;DHT22;40900;52.710;6.438;2023-01-28T13:26:50;6.40;99.90
55004;DHT22;40900;52.710;6.438;2023-01-28T13:29:26;6.40;99.90
55004;DHT22;40900;52.710;6.438;2023-01-28T13:31:55;6.50;99.90
55004;DHT22;40900;52.710;6.438;2023-01-28T13:34:38;6.50;99.90
55004;DHT22;40900;52.710;6.438;2023-01-28T13:37:33;6.60;99.90
55004;DHT22;40900;52.710;6.438;2023-01-28T13:42:38;6.70;99.90
55004;DHT22;40900;52.710;6.438;2023-01-28T13:47:47;6.80;99.90
55004;DHT22;40900;52.710;6.438;2023-01-28T13:50:19;6.80;99.90
55004;DHT22;40900;52.710;6.438;2023-01-28T13:52:58;6.80;99.90
55004;DHT22;40900;52.710;6.438;2023-01-28T13:55:33;6.70;99.90
55004;DHT22;40900;52.710;6.438;2023-01-28T13:58:29;6.50;99.90
55004;DHT22;40900;52.710;6.438;2023-01-28T14:18:09;5.90;99.90
55004;DHT22;40900;52.710;6.438;2023-01-28T14:20:44;6.00;99.90
55004;DHT22;40900;52.710;6.438;2023-01-28T14:23:19;5.80;99.90
55004;DHT22;40900;52.710;6.438;2023-01-28T14:28:29;5.90;99.90
55004;DHT22;40900;52.710;6.438;2023-01-28T14:31:32;5.80;99.90
55004;DHT22;40900;52.710;6.438;2023-01-28T14:36:48;5.70;99.90
55004;DHT22;40900;52.710;6.438;2023-01-28T14:39:17;5.80;99.90
55004;DHT22;40900;52.710;6.438;2023-01-28T14:41:46;5.90;99.90
55004;DHT22;40900;52.710;6.438;2023-01-28T14:47:05;6.00;99.90
55004;DHT22;40900;52.710;6.438;2023-01-28T14:52:37;6.20;99.90
55004;DHT22;40900;52.710;6.438;2023-01-28T14:58:04;6.20;99.90
55004;DHT22;40900;52.710;6.438;2023-01-28T15:00:33;6.10;99.90
55004;DHT22;40900;52.710;6.438;2023-01-28T15:02:59;6.10;99.90
55004;DHT22;40900;52.710;6.438;2023-01-28T15:05:28;6.00;99.90
55004;DHT22;40900;52.710;6.438;2023-01-28T15:07:55;6.10;99.90
55004;DHT22;40900;52.710;6.438;2023-01-28T15:12:53;6.00;99.90
55004;DHT22;40900;52.710;6.438;2023-01-28T15:15:28;6.00;99.90
55004;DHT22;40900;52.710;6.438;2023-01-28T15:18:02;6.10;99.90
55004;DHT22;40900;52.710;6.438;2023-01-28T15:20:29;6.00;99.90
55004;DHT22;40900;52.710;6.438;2023-01-28T15:22:55;6.10;99.90
55004;DHT22;40900;52.710;6.438;2023-01-28T15:25:22;5.90;99.90
55004;DHT22;40900;52.710;6.438;2023-01-28T15:27:52;5.70;99.90
55004;DHT22;40900;52.710;6.438;2023-01-28T15:30:23;5.70;99.90
55004;DHT22;40900;52.710;6.438;2023-01-28T15:35:25;5.50;99.90
55004;DHT22;40900;52.710;6.438;2023-01-28T15:37:51;5.50;99.90
55004;DHT22;40900;52.710;6.438;2023-01-28T15:40:18;5.50;99.90
55004;DHT22;40900;52.710;6.438;2023-01-28T15:42:46;5.60;99.90
55004;DHT22;40900;52.710;6.438;2023-01-28T15:45:18;5.50;99.90
55004;DHT22;40900;52.710;6.438;2023-01-28T15:47:45;5.40;99.90
55004;DHT22;40900;52.710;6.438;2023-01-28T15:50:20;5.30;99.90
55004;DHT22;40900;52.710;6.438;2023-01-28T15:52:47;5.30;99.90
55004;DHT22;40900;52.710;6.438;2023-01-28T15:55:39;5.20;99.90
55004;DHT22;40900;52.710;6.438;2023-01-28T16:00:36;5.10;99.90
55004;DHT22;40900;52.710;6.438;2023-01-28T16:03:08;4.90;99.90
55004;DHT22;40900;52.710;6.438;2023-01-28T16:05:41;4.90;99.90
55004;DHT22;40900;52.710;6.438;2023-01-28T16:08:18;4.90;99.90
55004;DHT22;40900;52.710;6.438;2023-01-28T16:10:55;4.70;99.90
55004;DHT22;40900;52.710;6.438;2023-01-28T16:13:26;4.80;99.90
55004;DHT22;40900;52.710;6.438;2023-01-28T16:15:54;4.80;99.90
55004;DHT22;40900;52.710;6.438;2023-01-28T16:18:48;4.80;99.90
55004;DHT22;40900;52.710;6.438;2023-01-28T16:21:29;4.80;99.90
55004;DHT22;40900;52.710;6.438;2023-01-28T16:24:18;4.80;99.90
55004;DHT22;40900;52.710;6.438;2023-01-28T16:26:58;4.70;99.90
55004;DHT22;40900;52.710;6.438;2023-01-28T16:29:25;4.60;99.90
55004;DHT22;40900;52.710;6.438;2023-01-28T16:31:52;4.70;99.90
55004;DHT22;40900;52.710;6.438;2023-01-28T16:34:18;4.70;99.90
55004;DHT22;40900;52.710;6.438;2023-01-28T16:36:44;4.70;99.90
55004;DHT22;40900;52.710;6.438;2023-01-28T16:39:10;4.60;99.90
55004;DHT22;40900;52.710;6.438;2023-01-28T16:41:41;4.60;99.90
55004;DHT22;40900;52.710;6.438;2023-01-28T16:44:12;4.60;99.90
55004;DHT22;40900;52.710;6.438;2023-01-28T16:46:38;4.50;99.90
55004;DHT22;40900;52.710;6.438;2023-01-28T16:49:04;4.60;99.90
55004;DHT22;40900;52.710;6.438;2023-01-28T16:51:30;4.50;99.90
55004;DHT22;40900;52.710;6.438;2023-01-28T16:53:56;4.40;99.90
55004;DHT22;40900;52.710;6.438;2023-01-28T16:56:24;4.40;99.90
55004;DHT22;40900;52.710;6.438;2023-01-28T16:58:51;4.30;99.90
55004;DHT22;40900;52.710;6.438;2023-01-28T17:01:17;4.40;99.90
55004;DHT22;40900;52.710;6.438;2023-01-28T17:03:43;4.30;99.90
55004;DHT22;40900;52.710;6.438;2023-01-28T17:06:16;4.30;99.90
55004;DHT22;40900;52.710;6.438;2023-01-28T17:08:42;4.30;99.90
55004;DHT22;40900;52.710;6.438;2023-01-28T17:11:08;4.30;99.90
55004;DHT22;40900;52.710;6.438;2023-01-28T17:13:34;4.30;99.90
55004;DHT22;40900;52.710;6.438;2023-01-28T17:16:01;4.30;99.90
55004;DHT22;40900;52.710;6.438;2023-01-28T17:18:28;4.40;99.90
55004;DHT22;40900;52.710;6.438;2023-01-28T17:20:53;4.30;99.90
55004;DHT22;40900;52.710;6.438;2023-01-28T17:23:19;4.30;99.90
55004;DHT22;40900;52.710;6.438;2023-01-28T17:25:48;4.20;99.90
55004;DHT22;40900;52.710;6.438;2023-01-28T17:28:14;4.20;99.90
55004;DHT22;40900;52.710;6.438;2023-01-28T17:30:40;4.20;99.90
55004;DHT22;40900;52.710;6.438;2023-01-28T17:33:07;4.20;99.90
55004;DHT22;40900;52.710;6.438;2023-01-28T17:35:33;4.20;99.90
55004;DHT22;40900;52.710;6.438;2023-01-28T17:38:01;4.10;99.90
55004;DHT22;40900;52.710;6.438;2023-01-28T17:40:27;4.10;99.90
55004;DHT22;40900;52.710;6.438;2023-01-28T17:42:54;4.10;99.90
55004;DHT22;40900;52.710;6.438;2023-01-28T17:45:20;4.20;99.90
55004;DHT22;40900;52.710;6.438;2023-01-28T17:47:46;4.10;99.90
55004;DHT22;40900;52.710;6.438;2023-01-28T17:50:12;4.20;99.90
55004;DHT22;40900;52.710;6.438;2023-01-28T17:52:38;4.20;99.90
55004;DHT22;40900;52.710;6.438;2023-01-28T17:55:05;4.30;99.90
55004;DHT22;40900;52.710;6.438;2023-01-28T17:57:31;4.30;99.90